sensor_id;sensor_type;location;lat;lon;timestamp;temperature;humidity
79439;DHT22;68889;48.232;10.110;2023-06-22T00:02:24;19.10;94.70
79439;DHT22;68889;48.232;10.110;2023-06-22T00:04:50;19.00;94.80
79439;DHT22;68889;48.232;10.110;2023-06-22T00:07:16;18.90;94.90
79439;DHT22;68889;48.232;10.110;2023-06-22T00:09:41;18.90;95.30
79439;DHT22;68889;48.232;10.110;2023-06-22T00:12:07;18.90;94.90
79439;DHT22;68889;48.232;10.110;2023-06-22T00:14:33;18.80;94.80
79439;DHT22;68889;48.232;10.110;2023-06-22T00:16:58;18.70;95.00
79439;DHT22;68889;48.232;10.110;2023-06-22T00:19:24;18.60;95.90
79439;DHT22;68889;48.232;10.110;2023-06-22T00:21:50;18.60;95.90
79439;DHT22;68889;48.232;10.110;2023-06-22T00:24:21;18.60;96.10
79439;DHT22;68889;48.232;10.110;2023-06-22T00:26:50;18.60;96.00
79439;DHT22;68889;48.232;10.110;2023-06-22T00:29:16;18.50;95.70
79439;DHT22;68889;48.232;10.110;2023-06-22T00:31:42;18.50;96.00
79439;DHT22;68889;48.232;10.110;2023-06-22T00:34:08;18.50;96.10
79439;DHT22;68889;48.232;10.110;2023-06-22T00:36:34;18.50;95.90
79439;DHT22;68889;48.232;10.110;2023-06-22T00:39:00;18.40;95.90
79439;DHT22;68889;48.232;10.110;2023-06-22T00:41:26;18.40;96.50
79439;DHT22;68889;48.232;10.110;2023-06-22T00:43:54;18.30;96.00
79439;DHT22;68889;48.232;10.110;2023-06-22T00:46:20;18.30;96.20
79439;DHT22;68889;48.232;10.110;2023-06-22T00:48:45;18.30;95.90
79439;DHT22;68889;48.232;10.110;2023-06-22T00:51:11;18.30;96.00
79439;DHT22;68889;48.232;10.110;2023-06-22T00:53:37;18.20;96.20
79439;DHT22;68889;48.232;10.110;2023-06-22T00:56:04;18.20;96.10
79439;DHT22;68889;48.232;10.110;2023-06-22T00:58:31;18.10;97.30
79439;DHT22;68889;48.232;10.110;2023-06-22T01:00:57;18.10;96.60
79439;DHT22;68889;48.232;10.110;2023-06-22T01:03:23;18.10;97.80
79439;DHT22;68889;48.232;10.110;2023-06-22T01:05:49;18.10;97.10
79439;DHT22;68889;48.232;10.110;2023-06-22T01:08:31;18.10;97.10
79439;DHT22;68889;48.232;10.110;2023-06-22T01:11:12;18.00;97.20
79439;DHT22;68889;48.232;10.110;2023-06-22T01:16:31;18.10;97.00
79439;DHT22;68889;48.232;10.110;2023-06-22T01:19:02;18.00;96.60
79439;DHT22;68889;48.232;10.110;2023-06-22T01:21:31;18.00;97.30
79439;DHT22;68889;48.232;10.110;2023-06-22T01:24:18;18.00;97.50
79439;DHT22;68889;48.232;10.110;2023-06-22T01:29:24;18.00;97.50
79439;DHT22;68889;48.232;10.110;2023-06-22T01:31:52;18.00;97.00
79439;DHT22;68889;48.232;10.110;2023-06-22T01:34:20;17.90;97.50
79439;DHT22;68889;48.232;10.110;2023-06-22T01:36:46;17.90;97.90
79439;DHT22;68889;48.232;10.110;2023-06-22T01:39:13;17.90;97.60
79439;DHT22;68889;48.232;10.110;2023-06-22T01:41:38;17.90;97.70
79439;DHT22;68889;48.232;10.110;2023-06-22T01:44:05;17.90;97.20
79439;DHT22;68889;48.232;10.110;2023-06-22T01:46:34;17.90;97.10
79439;DHT22;68889;48.232;10.110;2023-06-22T01:49:02;17.80;97.40
79439;DHT22;68889;48.232;10.110;2023-06-22T01:51:27;17.80;97.20
79439;DHT22;68889;48.232;10.110;2023-06-22T01:53:53;17.80;96.80
79439;DHT22;68889;48.232;10.110;2023-06-22T01:56:19;17.80;97.20
79439;DHT22;68889;48.232;10.110;2023-06-22T02:01:38;17.80;98.10
79439;DHT22;68889;48.232;10.110;2023-06-22T02:04:11;17.80;98.10
79439;DHT22;68889;48.232;10.110;2023-06-22T02:06:39;17.80;98.00
79439;DHT22;68889;48.232;10.110;2023-06-22T02:09:14;17.70;97.00
79439;DHT22;68889;48.232;10.110;2023-06-22T02:11:43;17.60;97.60
79439;DHT22;68889;48.232;10.110;2023-06-22T02:14:10;17.60;97.90
79439;DHT22;68889;48.232;10.110;2023-06-22T02:16:37;17.60;98.30
79439;DHT22;68889;48.232;10.110;2023-06-22T02:19:03;17.60;98.20
79439;DHT22;68889;48.232;10.110;2023-06-22T02:21:29;17.60;98.10
79439;DHT22;68889;48.232;10.110;2023-06-22T02:23:56;17.50;97.90
79439;DHT22;68889;48.232;10.110;2023-06-22T02:26:22;17.50;98.60
79439;DHT22;68889;48.232;10.110;2023-06-22T02:28:49;17.50;97.70
79439;DHT22;68889;48.232;10.110;2023-06-22T02:31:14;17.50;97.80
79439;DHT22;68889;48.232;10.110;2023-06-22T02:33:40;17.40;97.30
79439;DHT22;68889;48.232;10.110;2023-06-22T02:36:05;17.40;97.30
79439;DHT22;68889;48.232;10.110;2023-06-22T02:38:37;17.30;98.30
79439;DHT22;68889;48.232;10.110;2023-06-22T02:41:03;17.30;98.30
79439;DHT22;68889;48.232;10.110;2023-06-22T02:43:28;17.20;98.00
79439;DHT22;68889;48.232;10.110;2023-06-22T02:45:55;17.20;98.60
79439;DHT22;68889;48.232;10.110;2023-06-22T02:48:20;17.20;99.10
79439;DHT22;68889;48.232;10.110;2023-06-22T02:50:46;17.20;98.20
79439;DHT22;68889;48.232;10.110;2023-06-22T02:53:11;17.20;99.30
79439;DHT22;68889;48.232;10.110;2023-06-22T02:55:37;17.20;99.00
79439;DHT22;68889;48.232;10.110;2023-06-22T02:58:05;17.20;99.60
79439;DHT22;68889;48.232;10.110;2023-06-22T03:00:31;17.20;99.40
79439;DHT22;68889;48.232;10.110;2023-06-22T03:02:56;17.20;99.90
79439;DHT22;68889;48.232;10.110;2023-06-22T03:05:23;17.20;99.40
79439;DHT22;68889;48.232;10.110;2023-06-22T03:07:48;17.20;99.70
79439;DHT22;68889;48.232;10.110;2023-06-22T03:10:15;17.20;99.50
79439;DHT22;68889;48.232;10.110;2023-06-22T03:12:41;17.10;99.30
79439;DHT22;68889;48.232;10.110;2023-06-22T03:15:09;17.10;99.90
79439;DHT22;68889;48.232;10.110;2023-06-22T03:17:36;17.10;99.90
79439;DHT22;68889;48.232;10.110;2023-06-22T03:20:02;17.10;99.60
79439;DHT22;68889;48.232;10.110;2023-06-22T03:22:35;17.10;99.70
79439;DHT22;68889;48.232;10.110;2023-06-22T03:25:01;17.10;99.90
79439;DHT22;68889;48.232;10.110;2023-06-22T03:27:27;17.10;99.90
79439;DHT22;68889;48.232;10.110;2023-06-22T03:29:52;17.10;99.90
79439;DHT22;68889;48.232;10.110;2023-06-22T03:32:18;17.10;99.90
79439;DHT22;68889;48.232;10.110;2023-06-22T03:34:43;17.00;99.20
79439;DHT22;68889;48.232;10.110;2023-06-22T03:37:13;17.00;99.90
79439;DHT22;68889;48.232;10.110;2023-06-22T03:39:39;17.00;99.90
79439;DHT22;68889;48.232;10.110;2023-06-22T03:42:05;17.00;99.30
79439;DHT22;68889;48.232;10.110;2023-06-22T03:44:31;17.00;99.10
79439;DHT22;68889;48.232;10.110;2023-06-22T03:46:56;17.00;99.80
79439;DHT22;68889;48.232;10.110;2023-06-22T03:49:22;17.10;99.90
79439;DHT22;68889;48.232;10.110;2023-06-22T03:51:47;17.00;99.90
79439;DHT22;68889;48.232;10.110;2023-06-22T03:54:13;17.00;99.90
79439;DHT22;68889;48.232;10.110;2023-06-22T03:56:38;17.10;99.90
79439;DHT22;68889;48.232;10.110;2023-06-22T03:59:04;17.10;99.90
79439;DHT22;68889;48.232;10.110;2023-06-22T04:01:29;17.10;99.90
79439;DHT22;68889;48.232;10.110;2023-06-22T04:03:55;17.10;99.90
79439;DHT22;68889;48.232;10.110;2023-06-22T04:06:20;17.10;99.90
79439;DHT22;68889;48.232;10.110;2023-06-22T04:08:47;17.20;99.90
79439;DHT22;68889;48.232;10.110;2023-06-22T04:11:16;17.20;99.90
79439;DHT22;68889;48.232;10.110;2023-06-22T04:13:42;17.20;99.90
79439;DHT22;68889;48.232;10.110;2023-06-22T04:16:08;17.20;99.50
79439;DHT22;68889;48.232;10.110;2023-06-22T04:18:33;17.20;99.90
79439;DHT22;68889;48.232;10.110;2023-06-22T04:20:59;17.20;99.90
79439;DHT22;68889;48.232;10.110;2023-06-22T04:23:25;17.20;99.90
79439;DHT22;68889;48.232;10.110;2023-06-22T04:25:50;17.20;99.90
79439;DHT22;68889;48.232;10.110;2023-06-22T04:28:17;17.20;99.90
79439;DHT22;68889;48.232;10.110;2023-06-22T04:30:42;17.20;99.90
79439;DHT22;68889;48.232;10.110;2023-06-22T04:33:16;17.40;99.90
79439;DHT22;68889;48.232;10.110;2023-06-22T04:35:44;17.40;99.90
79439;DHT22;68889;48.232;10.110;2023-06-22T04:38:12;17.40;99.90
79439;DHT22;68889;48.232;10.110;2023-06-22T04:40:39;17.50;99.90
79439;DHT22;68889;48.232;10.110;2023-06-22T04:43:04;17.50;99.90
79439;DHT22;68889;48.232;10.110;2023-06-22T04:45:32;17.60;99.90
79439;DHT22;68889;48.232;10.110;2023-06-22T04:47:58;17.60;99.70
79439;DHT22;68889;48.232;10.110;2023-06-22T04:50:24;17.70;99.90
79439;DHT22;68889;48.232;10.110;2023-06-22T04:52:50;17.70;99.60
79439;DHT22;68889;48.232;10.110;2023-06-22T04:55:16;17.80;99.20
79439;DHT22;68889;48.232;10.110;2023-06-22T04:57:46;17.90;99.20
79439;DHT22;68889;48.232;10.110;2023-06-22T05:00:18;17.90;99.00
79439;DHT22;68889;48.232;10.110;2023-06-22T05:02:45;18.00;99.40
79439;DHT22;68889;48.232;10.110;2023-06-22T05:05:12;18.10;98.80
79439;DHT22;68889;48.232;10.110;2023-06-22T05:07:45;18.20;98.70
79439;DHT22;68889;48.232;10.110;2023-06-22T05:10:14;18.30;98.30
79439;DHT22;68889;48.232;10.110;2023-06-22T05:12:40;18.40;98.90
79439;DHT22;68889;48.232;10.110;2023-06-22T05:15:09;18.50;98.70
79439;DHT22;68889;48.232;10.110;2023-06-22T05:17:35;18.60;97.50
79439;DHT22;68889;48.232;10.110;2023-06-22T05:20:02;18.60;97.50
79439;DHT22;68889;48.232;10.110;2023-06-22T05:22:28;18.70;97.10
79439;DHT22;68889;48.232;10.110;2023-06-22T05:24:53;18.80;96.30
79439;DHT22;68889;48.232;10.110;2023-06-22T05:27:19;18.90;94.80
79439;DHT22;68889;48.232;10.110;2023-06-22T05:29:44;19.00;95.80
79439;DHT22;68889;48.232;10.110;2023-06-22T05:32:10;19.00;95.10
79439;DHT22;68889;48.232;10.110;2023-06-22T05:34:36;19.10;95.90
79439;DHT22;68889;48.232;10.110;2023-06-22T05:37:02;19.20;94.80
79439;DHT22;68889;48.232;10.110;2023-06-22T05:39:28;19.20;94.80
79439;DHT22;68889;48.232;10.110;2023-06-22T05:41:53;19.30;95.00
79439;DHT22;68889;48.232;10.110;2023-06-22T05:44:19;19.40;95.60
79439;DHT22;68889;48.232;10.110;2023-06-22T05:46:45;19.50;93.70
79439;DHT22;68889;48.232;10.110;2023-06-22T05:49:12;19.60;94.00
79439;DHT22;68889;48.232;10.110;2023-06-22T05:51:38;19.60;93.70
79439;DHT22;68889;48.232;10.110;2023-06-22T05:54:04;19.70;92.70
79439;DHT22;68889;48.232;10.110;2023-06-22T05:56:30;19.80;93.20
79439;DHT22;68889;48.232;10.110;2023-06-22T05:58:55;19.90;92.50
79439;DHT22;68889;48.232;10.110;2023-06-22T06:01:21;19.90;92.60
79439;DHT22;68889;48.232;10.110;2023-06-22T06:03:47;19.90;92.00
79439;DHT22;68889;48.232;10.110;2023-06-22T06:06:14;20.00;91.80
79439;DHT22;68889;48.232;10.110;2023-06-22T06:08:39;20.10;92.10
79439;DHT22;68889;48.232;10.110;2023-06-22T06:11:05;20.20;91.30
79439;DHT22;68889;48.232;10.110;2023-06-22T06:13:30;20.30;90.50
79439;DHT22;68889;48.232;10.110;2023-06-22T06:15:56;20.40;91.00
79439;DHT22;68889;48.232;10.110;2023-06-22T06:18:22;20.40;89.60
79439;DHT22;68889;48.232;10.110;2023-06-22T06:20:48;20.50;90.10
79439;DHT22;68889;48.232;10.110;2023-06-22T06:23:13;20.60;89.60
79439;DHT22;68889;48.232;10.110;2023-06-22T06:25:39;20.70;90.00
79439;DHT22;68889;48.232;10.110;2023-06-22T06:28:04;20.80;89.50
79439;DHT22;68889;48.232;10.110;2023-06-22T06:30:30;21.00;88.80
79439;DHT22;68889;48.232;10.110;2023-06-22T06:32:55;21.10;87.40
79439;DHT22;68889;48.232;10.110;2023-06-22T06:35:21;21.20;88.20
79439;DHT22;68889;48.232;10.110;2023-06-22T06:37:47;21.20;88.00
79439;DHT22;68889;48.232;10.110;2023-06-22T06:40:14;21.30;87.70
79439;DHT22;68889;48.232;10.110;2023-06-22T06:42:42;21.50;87.70
79439;DHT22;68889;48.232;10.110;2023-06-22T06:45:20;21.70;87.00
79439;DHT22;68889;48.232;10.110;2023-06-22T06:47:48;21.80;86.60
79439;DHT22;68889;48.232;10.110;2023-06-22T06:50:14;21.90;85.20
79439;DHT22;68889;48.232;10.110;2023-06-22T06:52:39;22.00;85.40
79439;DHT22;68889;48.232;10.110;2023-06-22T06:55:06;22.20;84.60
79439;DHT22;68889;48.232;10.110;2023-06-22T06:57:34;22.30;84.80
79439;DHT22;68889;48.232;10.110;2023-06-22T06:59:59;22.30;85.00
79439;DHT22;68889;48.232;10.110;2023-06-22T07:02:25;22.40;84.00
79439;DHT22;68889;48.232;10.110;2023-06-22T07:04:51;22.50;84.20
79439;DHT22;68889;48.232;10.110;2023-06-22T07:07:16;22.70;84.20
79439;DHT22;68889;48.232;10.110;2023-06-22T07:09:42;22.90;82.30
79439;DHT22;68889;48.232;10.110;2023-06-22T07:12:08;23.10;82.10
79439;DHT22;68889;48.232;10.110;2023-06-22T07:14:33;23.20;81.50
79439;DHT22;68889;48.232;10.110;2023-06-22T07:16:59;23.40;81.00
79439;DHT22;68889;48.232;10.110;2023-06-22T07:19:25;23.50;81.30
79439;DHT22;68889;48.232;10.110;2023-06-22T07:21:52;23.70;81.10
79439;DHT22;68889;48.232;10.110;2023-06-22T07:24:19;23.80;79.60
79439;DHT22;68889;48.232;10.110;2023-06-22T07:26:46;23.90;79.80
79439;DHT22;68889;48.232;10.110;2023-06-22T07:29:13;24.10;78.60
79439;DHT22;68889;48.232;10.110;2023-06-22T07:31:39;24.20;78.10
79439;DHT22;68889;48.232;10.110;2023-06-22T07:34:06;24.30;79.50
79439;DHT22;68889;48.232;10.110;2023-06-22T07:36:32;24.60;77.00
79439;DHT22;68889;48.232;10.110;2023-06-22T07:38:57;24.80;77.50
79439;DHT22;68889;48.232;10.110;2023-06-22T07:41:23;25.00;76.40
79439;DHT22;68889;48.232;10.110;2023-06-22T07:43:49;25.00;75.70
79439;DHT22;68889;48.232;10.110;2023-06-22T07:46:15;24.90;76.10
79439;DHT22;68889;48.232;10.110;2023-06-22T07:48:41;24.90;76.80
79439;DHT22;68889;48.232;10.110;2023-06-22T07:51:07;25.10;77.30
79439;DHT22;68889;48.232;10.110;2023-06-22T07:53:33;25.30;76.70
79439;DHT22;68889;48.232;10.110;2023-06-22T07:55:58;25.40;76.10
79439;DHT22;68889;48.232;10.110;2023-06-22T07:58:24;25.60;77.30
79439;DHT22;68889;48.232;10.110;2023-06-22T08:00:49;25.80;74.60
79439;DHT22;68889;48.232;10.110;2023-06-22T08:03:15;26.00;75.60
79439;DHT22;68889;48.232;10.110;2023-06-22T08:05:41;25.90;72.90
79439;DHT22;68889;48.232;10.110;2023-06-22T08:08:06;26.00;72.60
79439;DHT22;68889;48.232;10.110;2023-06-22T08:10:32;26.30;73.40
79439;DHT22;68889;48.232;10.110;2023-06-22T08:12:57;26.60;72.10
79439;DHT22;68889;48.232;10.110;2023-06-22T08:15:25;26.90;71.70
79439;DHT22;68889;48.232;10.110;2023-06-22T08:17:51;27.00;73.60
79439;DHT22;68889;48.232;10.110;2023-06-22T08:20:17;27.40;72.30
79439;DHT22;68889;48.232;10.110;2023-06-22T08:22:43;27.60;69.10
79439;DHT22;68889;48.232;10.110;2023-06-22T08:25:09;27.70;71.00
79439;DHT22;68889;48.232;10.110;2023-06-22T08:27:35;27.90;69.60
79439;DHT22;68889;48.232;10.110;2023-06-22T08:30:02;27.90;68.80
79439;DHT22;68889;48.232;10.110;2023-06-22T08:32:28;28.00;69.20
79439;DHT22;68889;48.232;10.110;2023-06-22T08:34:57;28.20;70.00
79439;DHT22;68889;48.232;10.110;2023-06-22T08:37:23;28.50;69.60
79439;DHT22;68889;48.232;10.110;2023-06-22T08:39:50;28.70;68.40
79439;DHT22;68889;48.232;10.110;2023-06-22T08:42:16;28.60;67.10
79439;DHT22;68889;48.232;10.110;2023-06-22T08:44:41;28.60;69.00
79439;DHT22;68889;48.232;10.110;2023-06-22T08:47:07;28.80;67.80
79439;DHT22;68889;48.232;10.110;2023-06-22T08:49:32;29.00;66.60
79439;DHT22;68889;48.232;10.110;2023-06-22T08:51:58;29.20;69.00
79439;DHT22;68889;48.232;10.110;2023-06-22T08:54:25;29.40;67.00
79439;DHT22;68889;48.232;10.110;2023-06-22T08:56:50;29.70;67.20
79439;DHT22;68889;48.232;10.110;2023-06-22T08:59:16;29.90;65.50
79439;DHT22;68889;48.232;10.110;2023-06-22T09:01:41;29.90;65.60
79439;DHT22;68889;48.232;10.110;2023-06-22T09:04:11;29.90;66.30
79439;DHT22;68889;48.232;10.110;2023-06-22T09:06:37;29.90;66.10
79439;DHT22;68889;48.232;10.110;2023-06-22T09:09:06;30.30;65.30
79439;DHT22;68889;48.232;10.110;2023-06-22T09:11:32;30.60;64.80
79439;DHT22;68889;48.232;10.110;2023-06-22T09:13:57;30.80;64.20
79439;DHT22;68889;48.232;10.110;2023-06-22T09:16:23;30.80;62.40
79439;DHT22;68889;48.232;10.110;2023-06-22T09:18:48;30.90;62.70
79439;DHT22;68889;48.232;10.110;2023-06-22T09:21:14;31.00;64.50
79439;DHT22;68889;48.232;10.110;2023-06-22T09:23:39;30.70;64.30
79439;DHT22;68889;48.232;10.110;2023-06-22T09:26:05;30.50;65.50
79439;DHT22;68889;48.232;10.110;2023-06-22T09:28:31;30.40;64.70
79439;DHT22;68889;48.232;10.110;2023-06-22T09:30:56;30.30;64.40
79439;DHT22;68889;48.232;10.110;2023-06-22T09:33:24;30.20;63.60
79439;DHT22;68889;48.232;10.110;2023-06-22T09:35:50;30.30;65.10
79439;DHT22;68889;48.232;10.110;2023-06-22T09:38:16;30.30;65.30
79439;DHT22;68889;48.232;10.110;2023-06-22T09:40:42;30.40;63.50
79439;DHT22;68889;48.232;10.110;2023-06-22T09:43:08;30.60;65.20
79439;DHT22;68889;48.232;10.110;2023-06-22T09:45:33;31.00;63.30
79439;DHT22;68889;48.232;10.110;2023-06-22T09:47:59;31.20;61.60
79439;DHT22;68889;48.232;10.110;2023-06-22T09:50:24;31.40;59.10
79439;DHT22;68889;48.232;10.110;2023-06-22T09:52:50;31.30;63.20
79439;DHT22;68889;48.232;10.110;2023-06-22T09:55:23;31.70;61.60
79439;DHT22;68889;48.232;10.110;2023-06-22T09:57:48;31.90;61.60
79439;DHT22;68889;48.232;10.110;2023-06-22T10:00:16;32.40;59.60
79439;DHT22;68889;48.232;10.110;2023-06-22T10:02:42;32.70;57.60
79439;DHT22;68889;48.232;10.110;2023-06-22T10:05:08;32.90;58.50
79439;DHT22;68889;48.232;10.110;2023-06-22T10:07:34;32.90;57.40
79439;DHT22;68889;48.232;10.110;2023-06-22T10:09:59;33.00;58.40
79439;DHT22;68889;48.232;10.110;2023-06-22T10:12:27;33.10;56.50
79439;DHT22;68889;48.232;10.110;2023-06-22T10:14:52;33.40;56.60
79439;DHT22;68889;48.232;10.110;2023-06-22T10:17:18;33.60;56.90
79439;DHT22;68889;48.232;10.110;2023-06-22T10:19:43;33.70;55.50
79439;DHT22;68889;48.232;10.110;2023-06-22T10:22:09;33.80;55.70
79439;DHT22;68889;48.232;10.110;2023-06-22T10:24:34;33.80;57.30
79439;DHT22;68889;48.232;10.110;2023-06-22T10:27:00;34.00;54.20
79439;DHT22;68889;48.232;10.110;2023-06-22T10:29:26;34.10;54.80
79439;DHT22;68889;48.232;10.110;2023-06-22T10:31:51;34.20;53.50
79439;DHT22;68889;48.232;10.110;2023-06-22T10:34:17;34.10;57.50
79439;DHT22;68889;48.232;10.110;2023-06-22T10:36:42;34.50;56.50
79439;DHT22;68889;48.232;10.110;2023-06-22T10:39:08;34.60;57.40
79439;DHT22;68889;48.232;10.110;2023-06-22T10:41:35;35.00;53.70
79439;DHT22;68889;48.232;10.110;2023-06-22T10:44:00;35.30;54.30
79439;DHT22;68889;48.232;10.110;2023-06-22T10:46:26;35.70;53.60
79439;DHT22;68889;48.232;10.110;2023-06-22T10:48:53;35.60;54.60
79439;DHT22;68889;48.232;10.110;2023-06-22T10:51:20;35.60;52.00
79439;DHT22;68889;48.232;10.110;2023-06-22T10:53:46;35.10;52.70
79439;DHT22;68889;48.232;10.110;2023-06-22T10:56:11;34.60;55.60
79439;DHT22;68889;48.232;10.110;2023-06-22T10:58:37;34.70;56.70
79439;DHT22;68889;48.232;10.110;2023-06-22T11:01:02;35.10;55.60
79439;DHT22;68889;48.232;10.110;2023-06-22T11:03:28;35.40;56.30
79439;DHT22;68889;48.232;10.110;2023-06-22T11:05:54;35.50;56.40
79439;DHT22;68889;48.232;10.110;2023-06-22T11:08:19;35.80;54.80
79439;DHT22;68889;48.232;10.110;2023-06-22T11:10:45;36.30;55.20
79439;DHT22;68889;48.232;10.110;2023-06-22T11:13:11;36.30;54.00
79439;DHT22;68889;48.232;10.110;2023-06-22T11:15:36;36.10;51.80
79439;DHT22;68889;48.232;10.110;2023-06-22T11:18:02;36.10;53.90
79439;DHT22;68889;48.232;10.110;2023-06-22T11:20:27;35.90;54.90
79439;DHT22;68889;48.232;10.110;2023-06-22T11:22:53;35.70;57.30
79439;DHT22;68889;48.232;10.110;2023-06-22T11:25:18;35.70;55.10
79439;DHT22;68889;48.232;10.110;2023-06-22T11:27:44;35.60;54.40
79439;DHT22;68889;48.232;10.110;2023-06-22T11:30:10;35.40;56.80
79439;DHT22;68889;48.232;10.110;2023-06-22T11:32:36;35.60;54.80
79439;DHT22;68889;48.232;10.110;2023-06-22T11:35:01;35.50;52.80
79439;DHT22;68889;48.232;10.110;2023-06-22T11:37:27;35.60;52.20
79439;DHT22;68889;48.232;10.110;2023-06-22T11:39:52;36.00;49.60
79439;DHT22;68889;48.232;10.110;2023-06-22T11:42:20;36.40;49.60
79439;DHT22;68889;48.232;10.110;2023-06-22T11:44:46;36.30;51.40
79439;DHT22;68889;48.232;10.110;2023-06-22T11:47:11;36.40;51.70
79439;DHT22;68889;48.232;10.110;2023-06-22T11:49:37;36.60;52.70
79439;DHT22;68889;48.232;10.110;2023-06-22T11:52:03;36.90;49.00
79439;DHT22;68889;48.232;10.110;2023-06-22T11:54:28;36.80;50.10
79439;DHT22;68889;48.232;10.110;2023-06-22T11:56:54;37.10;51.40
79439;DHT22;68889;48.232;10.110;2023-06-22T11:59:19;37.50;51.40
79439;DHT22;68889;48.232;10.110;2023-06-22T12:01:46;37.70;49.40
79439;DHT22;68889;48.232;10.110;2023-06-22T12:04:12;37.50;52.10
79439;DHT22;68889;48.232;10.110;2023-06-22T12:06:38;37.30;52.00
79439;DHT22;68889;48.232;10.110;2023-06-22T12:09:07;37.00;51.80
79439;DHT22;68889;48.232;10.110;2023-06-22T12:11:33;36.40;50.20
79439;DHT22;68889;48.232;10.110;2023-06-22T12:13:58;36.30;52.20
79439;DHT22;68889;48.232;10.110;2023-06-22T12:16:27;36.70;50.90
79439;DHT22;68889;48.232;10.110;2023-06-22T12:18:53;37.20;52.20
79439;DHT22;68889;48.232;10.110;2023-06-22T12:21:19;37.60;49.50
79439;DHT22;68889;48.232;10.110;2023-06-22T12:23:44;37.90;48.90
79439;DHT22;68889;48.232;10.110;2023-06-22T12:26:10;38.10;50.30
79439;DHT22;68889;48.232;10.110;2023-06-22T12:28:36;38.10;48.10
79439;DHT22;68889;48.232;10.110;2023-06-22T12:31:01;38.30;47.80
79439;DHT22;68889;48.232;10.110;2023-06-22T12:33:27;38.10;47.20
79439;DHT22;68889;48.232;10.110;2023-06-22T12:35:52;37.70;48.20
79439;DHT22;68889;48.232;10.110;2023-06-22T12:38:18;37.30;50.20
79439;DHT22;68889;48.232;10.110;2023-06-22T12:40:43;36.90;49.60
79439;DHT22;68889;48.232;10.110;2023-06-22T12:43:09;36.80;45.80
79439;DHT22;68889;48.232;10.110;2023-06-22T12:45:34;36.60;47.20
79439;DHT22;68889;48.232;10.110;2023-06-22T12:48:00;36.60;49.90
79439;DHT22;68889;48.232;10.110;2023-06-22T12:50:26;37.00;46.90
79439;DHT22;68889;48.232;10.110;2023-06-22T12:52:52;37.10;46.40
79439;DHT22;68889;48.232;10.110;2023-06-22T12:55:17;37.00;48.00
79439;DHT22;68889;48.232;10.110;2023-06-22T12:57:43;37.00;47.80
79439;DHT22;68889;48.232;10.110;2023-06-22T13:00:09;36.80;49.80
79439;DHT22;68889;48.232;10.110;2023-06-22T13:02:35;36.40;49.20
79439;DHT22;68889;48.232;10.110;2023-06-22T13:05:02;36.20;53.30
79439;DHT22;68889;48.232;10.110;2023-06-22T13:07:27;36.20;50.70
79439;DHT22;68889;48.232;10.110;2023-06-22T13:09:53;36.10;52.90
79439;DHT22;68889;48.232;10.110;2023-06-22T13:12:20;35.90;52.50
79439;DHT22;68889;48.232;10.110;2023-06-22T13:14:45;36.10;50.00
79439;DHT22;68889;48.232;10.110;2023-06-22T13:17:12;36.00;49.60
79439;DHT22;68889;48.232;10.110;2023-06-22T13:19:39;35.80;53.00
79439;DHT22;68889;48.232;10.110;2023-06-22T13:22:05;35.60;53.70
79439;DHT22;68889;48.232;10.110;2023-06-22T13:24:31;35.60;52.00
79439;DHT22;68889;48.232;10.110;2023-06-22T13:26:56;35.50;51.80
79439;DHT22;68889;48.232;10.110;2023-06-22T13:29:24;35.40;50.60
79439;DHT22;68889;48.232;10.110;2023-06-22T13:31:50;35.10;51.70
79439;DHT22;68889;48.232;10.110;2023-06-22T13:34:15;35.10;51.30
79439;DHT22;68889;48.232;10.110;2023-06-22T13:36:41;35.10;49.60
79439;DHT22;68889;48.232;10.110;2023-06-22T13:39:06;35.10;52.20
79439;DHT22;68889;48.232;10.110;2023-06-22T13:41:32;35.10;51.00
79439;DHT22;68889;48.232;10.110;2023-06-22T13:43:57;35.00;52.10
79439;DHT22;68889;48.232;10.110;2023-06-22T13:46:23;34.90;51.50
79439;DHT22;68889;48.232;10.110;2023-06-22T13:48:48;34.70;52.50
79439;DHT22;68889;48.232;10.110;2023-06-22T13:51:14;34.40;52.30
79439;DHT22;68889;48.232;10.110;2023-06-22T13:53:39;34.10;53.50
79439;DHT22;68889;48.232;10.110;2023-06-22T13:56:05;34.10;56.20
79439;DHT22;68889;48.232;10.110;2023-06-22T13:58:31;34.10;53.90
79439;DHT22;68889;48.232;10.110;2023-06-22T14:00:56;34.10;52.60
79439;DHT22;68889;48.232;10.110;2023-06-22T14:03:22;34.10;53.00
79439;DHT22;68889;48.232;10.110;2023-06-22T14:05:47;34.00;53.20
79439;DHT22;68889;48.232;10.110;2023-06-22T14:08:13;34.00;53.90
79439;DHT22;68889;48.232;10.110;2023-06-22T14:10:40;34.10;53.20
79439;DHT22;68889;48.232;10.110;2023-06-22T14:13:05;34.00;54.50
79439;DHT22;68889;48.232;10.110;2023-06-22T14:15:31;33.70;55.00
79439;DHT22;68889;48.232;10.110;2023-06-22T14:17:57;33.50;55.40
79439;DHT22;68889;48.232;10.110;2023-06-22T14:20:23;33.50;56.20
79439;DHT22;68889;48.232;10.110;2023-06-22T14:22:48;33.50;54.30
79439;DHT22;68889;48.232;10.110;2023-06-22T14:25:14;33.40;57.00
79439;DHT22;68889;48.232;10.110;2023-06-22T14:27:39;33.60;55.40
79439;DHT22;68889;48.232;10.110;2023-06-22T14:30:05;33.90;55.40
79439;DHT22;68889;48.232;10.110;2023-06-22T14:32:31;34.10;55.20
79439;DHT22;68889;48.232;10.110;2023-06-22T14:34:56;34.20;53.50
79439;DHT22;68889;48.232;10.110;2023-06-22T14:37:22;34.00;55.50
79439;DHT22;68889;48.232;10.110;2023-06-22T14:39:48;34.10;54.00
79439;DHT22;68889;48.232;10.110;2023-06-22T14:42:13;34.60;55.70
79439;DHT22;68889;48.232;10.110;2023-06-22T14:44:39;35.10;54.30
79439;DHT22;68889;48.232;10.110;2023-06-22T14:47:04;35.20;53.50
79439;DHT22;68889;48.232;10.110;2023-06-22T14:49:30;35.20;52.80
79439;DHT22;68889;48.232;10.110;2023-06-22T14:51:56;35.30;53.10
79439;DHT22;68889;48.232;10.110;2023-06-22T14:54:21;35.40;52.30
79439;DHT22;68889;48.232;10.110;2023-06-22T14:56:48;35.30;52.10
79439;DHT22;68889;48.232;10.110;2023-06-22T14:59:13;35.30;53.40
79439;DHT22;68889;48.232;10.110;2023-06-22T15:01:39;35.20;53.80
79439;DHT22;68889;48.232;10.110;2023-06-22T15:04:04;35.50;52.40
79439;DHT22;68889;48.232;10.110;2023-06-22T15:06:30;35.70;52.50
79439;DHT22;68889;48.232;10.110;2023-06-22T15:08:55;35.80;51.10
79439;DHT22;68889;48.232;10.110;2023-06-22T15:11:21;35.90;55.40
79439;DHT22;68889;48.232;10.110;2023-06-22T15:13:47;35.90;52.80
79439;DHT22;68889;48.232;10.110;2023-06-22T15:16:12;35.60;49.30
79439;DHT22;68889;48.232;10.110;2023-06-22T15:18:38;35.00;52.60